Terminal Aerodrome Forecast
Issued by NWS Norman, OK

Home | Current Version | Previous Version | Text Only | Print | Product List | Glossary On
Versions: 1 2 3 4 5 6 7 8 9 10 11 12 13 14 15 16
000
FTUS44 KOUN 231128
TAFSPS
TAF
KSPS 231128Z 2312/2412 15007KT P6SM BKN070
      TEMPO 2312/2314 3SM BR BKN025
     FM231700 20010KT P6SM SCT060
     FM240000 15007KT P6SM SCT250=

USA.gov is the U.S. government's official web portal to all federal, state and local government web resources and services.